createdAt,value
2022-08-22T00:01:28.389Z,68.47
2022-08-22T00:02:42.775Z,61.16
2022-08-22T00:02:52.599Z,57.08
2022-08-22T00:02:59.810Z,61.62
2022-08-22T00:03:00.025Z,64.59
2022-08-22T00:04:07.474Z,68.48
2022-08-22T00:06:44.866Z,68.64
2022-08-22T00:09:29.040Z,68.74
2022-08-22T00:12:06.423Z,68.80
2022-08-22T00:14:40.281Z,68.77
2022-08-22T00:17:20.413Z,68.80
2022-08-22T00:19:54.993Z,69.00
2022-08-22T00:22:28.587Z,68.89
2022-08-22T00:25:02.062Z,69.56
2022-08-22T00:27:44.869Z,69.23
2022-08-22T00:30:15.751Z,69.42
2022-08-22T00:32:50.355Z,69.44
2022-08-22T00:35:23.859Z,69.68
2022-08-22T00:38:02.223Z,69.75
2022-08-22T00:40:42.886Z,69.89
2022-08-22T00:43:52.934Z,70.00
2022-08-22T00:46:33.866Z,70.27
2022-08-22T00:49:13.673Z,70.39
2022-08-22T00:52:19.185Z,70.39
2022-08-22T00:55:10.908Z,70.26
2022-08-22T00:57:51.711Z,70.48
2022-08-22T01:00:22.735Z,70.78
2022-08-22T01:03:28.199Z,71.01
2022-08-22T01:06:09.619Z,71.24
2022-08-22T01:09:01.667Z,71.29
2022-08-22T01:11:45.457Z,71.65
2022-08-22T01:14:34.800Z,71.55
2022-08-22T01:17:31.433Z,71.52
2022-08-22T01:20:37.593Z,71.65
2022-08-22T01:23:34.689Z,71.73
2022-08-22T01:26:27.680Z,71.70
2022-08-22T01:29:36.071Z,71.89
2022-08-22T01:32:40.770Z,71.92
2022-08-22T01:35:30.554Z,71.98
2022-08-22T01:38:35.897Z,72.14
2022-08-22T01:41:22.173Z,72.23
2022-08-22T01:44:03.201Z,72.96
2022-08-22T01:46:39.224Z,72.72
2022-08-22T01:49:15.309Z,73.04
2022-08-22T01:51:48.148Z,72.88
2022-08-22T01:54:26.898Z,73.36
2022-08-22T01:57:01.070Z,73.38
2022-08-22T01:59:34.616Z,73.57
2022-08-22T02:02:45.689Z,73.48
2022-08-22T02:05:25.828Z,74.40
2022-08-22T02:08:00.066Z,73.98
2022-08-22T02:10:45.383Z,74.61
2022-08-22T02:13:27.450Z,74.83
2022-08-22T02:16:09.353Z,74.80
2022-08-22T02:18:55.040Z,74.94
2022-08-22T02:21:31.893Z,74.86
2022-08-22T02:24:04.014Z,74.86
2022-08-22T02:26:50.038Z,74.95
2022-08-22T02:29:34.296Z,75.03
2022-08-22T02:32:10.584Z,74.80
2022-08-22T02:34:56.239Z,74.84
2022-08-22T02:37:41.246Z,74.95
2022-08-22T02:40:20.697Z,74.88
2022-08-22T02:43:00.497Z,75.03
2022-08-22T02:45:39.628Z,74.92
2022-08-22T02:48:17.168Z,74.77
2022-08-22T02:50:51.556Z,74.83
2022-08-22T02:53:23.666Z,74.89
2022-08-22T02:55:58.930Z,74.83
2022-08-22T02:58:37.954Z,74.70
2022-08-22T03:01:23.823Z,74.73
2022-08-22T03:04:13.591Z,74.63
2022-08-22T03:06:45.760Z,74.71
2022-08-22T03:09:27.578Z,74.67
2022-08-22T03:12:06.557Z,74.52
2022-08-22T03:14:43.148Z,74.67
2022-08-22T03:17:19.216Z,74.68
2022-08-22T03:19:55.301Z,74.83
2022-08-22T03:22:29.414Z,75.15
2022-08-22T03:25:06.881Z,75.44
2022-08-22T03:27:39.658Z,75.40
2022-08-22T03:30:13.561Z,75.31
2022-08-22T03:32:51.777Z,75.17
2022-08-22T03:35:32.560Z,75.32
2022-08-22T03:38:14.515Z,76.04
2022-08-22T03:40:57.131Z,75.80
2022-08-22T03:44:00.543Z,75.76
2022-08-22T03:46:48.523Z,75.67
2022-08-22T03:49:36.549Z,75.72
2022-08-22T03:52:29.581Z,75.73
2022-08-22T03:55:21.248Z,76.02
2022-08-22T03:58:03.444Z,75.79
2022-08-22T04:01:05.739Z,76.10
2022-08-22T04:03:57.237Z,76.21
2022-08-22T04:06:56.312Z,76.01
2022-08-22T04:09:57.938Z,77.17
2022-08-22T04:13:14.293Z,76.67
2022-08-22T04:16:15.352Z,76.20
2022-08-22T04:19:12.446Z,76.26
2022-08-22T04:22:07.613Z,75.99
2022-08-22T04:24:48.372Z,76.11
2022-08-22T04:27:26.362Z,76.10
2022-08-22T04:29:56.102Z,76.14
2022-08-22T04:32:30.596Z,76.67
2022-08-22T04:35:04.221Z,76.43
2022-08-22T04:37:37.718Z,76.24
2022-08-22T04:40:12.250Z,76.45
2022-08-22T04:42:43.780Z,76.38
2022-08-22T04:45:16.222Z,76.79
2022-08-22T04:47:54.289Z,76.84
2022-08-22T04:50:26.495Z,76.64
2022-08-22T04:53:05.203Z,76.43
2022-08-22T04:55:45.653Z,76.61
2022-08-22T04:58:25.080Z,76.79
2022-08-22T05:00:59.470Z,76.43
2022-08-22T05:03:29.803Z,76.31
2022-08-22T05:06:01.664Z,76.30
2022-08-22T05:08:32.937Z,76.15
2022-08-22T05:11:02.986Z,76.09
2022-08-22T05:13:32.934Z,76.07
2022-08-22T05:16:05.083Z,76.01
2022-08-22T05:18:36.866Z,75.97
2022-08-22T05:21:07.814Z,75.94
2022-08-22T05:23:39.564Z,75.71
2022-08-22T05:26:08.902Z,75.95
2022-08-22T05:28:40.391Z,75.54
2022-08-22T05:31:12.363Z,75.43
2022-08-22T05:33:43.739Z,75.36
2022-08-22T05:36:15.507Z,75.03
2022-08-22T05:38:47.236Z,74.87
2022-08-22T05:41:21.394Z,74.83
2022-08-22T05:43:51.114Z,74.56
2022-08-22T05:46:27.104Z,74.11
2022-08-22T05:48:59.329Z,73.91
2022-08-22T05:51:40.338Z,73.81
2022-08-22T05:54:12.626Z,73.45
2022-08-22T05:56:45.916Z,73.47
2022-08-22T05:59:17.759Z,73.67
2022-08-22T06:01:54.079Z,73.43
2022-08-22T06:04:27.442Z,72.98
2022-08-22T06:06:59.117Z,72.74
2022-08-22T06:09:35.354Z,72.67
2022-08-22T06:12:18.127Z,72.28
2022-08-22T06:14:59.241Z,72.15
2022-08-22T06:17:33.225Z,72.03
2022-08-22T06:20:02.507Z,71.83
2022-08-22T06:22:36.770Z,71.59
2022-08-22T06:25:10.017Z,71.35
2022-08-22T06:27:39.619Z,71.60
2022-08-22T06:30:12.299Z,71.39
2022-08-22T06:32:59.790Z,71.17
2022-08-22T06:35:52.654Z,70.93
2022-08-22T06:38:22.430Z,70.51
2022-08-22T06:40:53.691Z,70.50
2022-08-22T06:43:23.851Z,70.61
2022-08-22T06:45:52.911Z,70.49
2022-08-22T06:48:23.385Z,70.29
2022-08-22T06:50:56.585Z,70.17
2022-08-22T06:53:28.413Z,69.63
2022-08-22T06:56:02.460Z,69.48
2022-08-22T06:58:34.483Z,69.30
2022-08-22T07:01:11.646Z,68.90
2022-08-22T07:03:45.710Z,68.34
2022-08-22T07:06:17.349Z,68.15
2022-08-22T07:08:46.937Z,68.03
2022-08-22T07:11:21.567Z,67.70
2022-08-22T07:13:56.675Z,67.77
2022-08-22T07:16:31.178Z,67.81
2022-08-22T07:18:59.976Z,67.41
2022-08-22T07:21:31.114Z,67.20
2022-08-22T07:24:06.071Z,67.32
2022-08-22T07:26:41.408Z,67.43
2022-08-22T07:29:17.883Z,66.78
2022-08-22T07:31:53.474Z,66.99
2022-08-22T07:34:33.272Z,66.58
2022-08-22T07:37:06.180Z,65.15
2022-08-22T07:39:38.259Z,65.17
2022-08-22T07:42:12.653Z,63.97
2022-08-22T07:44:59.843Z,62.66
2022-08-22T07:47:39.091Z,62.85
2022-08-22T07:50:08.607Z,62.76
2022-08-22T07:52:41.580Z,62.73
2022-08-22T07:55:17.023Z,61.82
2022-08-22T07:57:48.249Z,60.88
2022-08-22T08:00:19.824Z,61.86
2022-08-22T08:02:52.695Z,61.61
2022-08-22T08:05:24.163Z,61.07
2022-08-22T08:07:55.109Z,61.01
2022-08-22T08:10:27.254Z,61.52
2022-08-22T08:13:02.772Z,61.10
2022-08-22T08:15:34.468Z,60.49
2022-08-22T08:18:05.878Z,60.24
2022-08-22T08:20:35.415Z,59.80
2022-08-22T08:23:07.700Z,60.17
2022-08-22T08:25:53.580Z,59.14
2022-08-22T08:28:33.932Z,57.61
2022-08-22T08:31:12.207Z,57.76
2022-08-22T08:33:44.410Z,58.07
2022-08-22T08:36:29.697Z,56.92
2022-08-22T08:39:11.965Z,57.37
2022-08-22T08:41:59.803Z,56.73
2022-08-22T08:44:46.057Z,56.70
2022-08-22T08:47:29.423Z,55.43
2022-08-22T08:50:14.695Z,55.72
2022-08-22T08:53:00.090Z,54.75
2022-08-22T08:55:39.847Z,55.45
2022-08-22T08:58:24.084Z,56.14
2022-08-22T09:00:57.117Z,56.38
2022-08-22T09:04:06.405Z,55.82
2022-08-22T09:07:01.347Z,56.26
2022-08-22T09:09:44.467Z,56.43
2022-08-22T09:12:36.119Z,56.91
2022-08-22T09:15:18.628Z,55.86
2022-08-22T09:18:14.023Z,55.86
2022-08-22T09:21:00.993Z,55.63
2022-08-22T09:23:59.108Z,55.53
2022-08-22T09:26:32.516Z,54.99
2022-08-22T09:29:13.536Z,55.14
2022-08-22T09:31:52.618Z,55.32
2022-08-22T09:34:28.929Z,54.42
2022-08-22T09:37:18.969Z,54.47
2022-08-22T09:39:57.364Z,54.52
2022-08-22T09:42:31.564Z,55.21
2022-08-22T09:45:38.027Z,55.01
2022-08-22T09:48:21.116Z,54.52
2022-08-22T09:51:08.455Z,53.01
2022-08-22T09:54:21.953Z,52.77
2022-08-22T09:57:15.860Z,52.75
2022-08-22T09:59:58.096Z,52.54
2022-08-22T10:02:33.949Z,52.17
2022-08-22T10:05:11.648Z,52.06
2022-08-22T10:08:07.469Z,50.70
2022-08-22T10:10:53.979Z,50.97
2022-08-22T10:13:34.091Z,51.33
2022-08-22T10:16:14.880Z,51.91
2022-08-22T10:18:52.782Z,52.21
2022-08-22T10:21:30.811Z,52.45
2022-08-22T10:24:02.976Z,52.27
2022-08-22T10:26:44.873Z,52.72
2022-08-22T10:29:36.095Z,52.93
2022-08-22T10:32:14.761Z,53.10
2022-08-22T10:34:48.535Z,52.90
2022-08-22T10:37:25.033Z,52.75
2022-08-22T10:39:59.732Z,52.57
2022-08-22T10:42:31.255Z,52.93
2022-08-22T10:45:36.386Z,53.32
2022-08-22T10:48:25.634Z,53.23
2022-08-22T10:51:01.648Z,53.46
2022-08-22T10:53:37.060Z,53.63
2022-08-22T10:56:10.535Z,53.51
2022-08-22T10:58:41.879Z,53.83
2022-08-22T11:01:37.101Z,53.71
2022-08-22T11:04:12.196Z,53.56
2022-08-22T11:06:45.844Z,53.35
2022-08-22T11:09:20.688Z,53.19
2022-08-22T11:11:56.047Z,53.08
2022-08-22T11:14:50.431Z,53.30
2022-08-22T11:17:40.635Z,53.27
2022-08-22T11:20:19.415Z,53.07
2022-08-22T11:23:00.143Z,53.33
2022-08-22T11:25:40.821Z,53.40
2022-08-22T11:28:40.697Z,53.78
2022-08-22T11:31:19.311Z,52.84
2022-08-22T11:34:01.851Z,52.85
2022-08-22T11:36:36.369Z,52.72
2022-08-22T11:39:17.935Z,52.60
2022-08-22T11:41:54.546Z,52.23
2022-08-22T11:44:27.383Z,51.82
2022-08-22T11:46:56.992Z,51.26
2022-08-22T11:49:47.497Z,50.60
2022-08-22T11:53:07.660Z,50.62
2022-08-22T11:55:38.661Z,50.03
2022-08-22T11:58:29.107Z,50.06
2022-08-22T12:01:01.451Z,49.82
2022-08-22T12:03:43.638Z,50.15
2022-08-22T12:06:34.717Z,49.89
2022-08-22T12:09:15.576Z,50.59
2022-08-22T12:11:57.827Z,50.75
2022-08-22T12:14:31.037Z,50.28
2022-08-22T12:17:51.087Z,50.19
2022-08-22T12:20:24.235Z,50.11
2022-08-22T12:23:18.085Z,50.00
2022-08-22T12:25:58.911Z,50.24
2022-08-22T12:28:35.010Z,50.96
2022-08-22T12:31:12.655Z,50.68
2022-08-22T12:33:53.352Z,49.74
2022-08-22T12:36:50.646Z,49.98
2022-08-22T12:39:41.106Z,50.04
2022-08-22T12:42:24.621Z,50.47
2022-08-22T12:45:07.777Z,50.89
2022-08-22T12:47:42.263Z,50.88
2022-08-22T12:50:21.538Z,51.19
2022-08-22T12:53:11.961Z,51.04
2022-08-22T12:56:04.685Z,50.85
2022-08-22T12:58:51.396Z,50.80
2022-08-22T13:01:23.309Z,50.97
2022-08-22T13:04:05.139Z,50.78
2022-08-22T13:07:06.019Z,50.55
2022-08-22T13:09:38.020Z,50.69
2022-08-22T13:12:19.879Z,50.84
2022-08-22T13:14:54.351Z,51.19
2022-08-22T13:17:25.365Z,51.33
2022-08-22T13:20:04.488Z,50.76
2022-08-22T13:22:36.198Z,51.12
2022-08-22T13:25:15.574Z,51.48
2022-08-22T13:27:55.494Z,51.33
2022-08-22T13:30:31.303Z,51.59
2022-08-22T13:33:08.735Z,51.33
2022-08-22T13:35:44.486Z,51.26
2022-08-22T13:38:26.338Z,51.46
2022-08-22T13:41:00.799Z,50.90
2022-08-22T13:43:33.663Z,50.09
2022-08-22T13:46:04.995Z,50.35
2022-08-22T13:48:49.655Z,51.08
2022-08-22T13:51:25.235Z,51.20
2022-08-22T13:54:01.043Z,50.87
2022-08-22T13:56:39.016Z,51.03
2022-08-22T13:59:47.150Z,50.79
2022-08-22T14:02:15.228Z,50.74
2022-08-22T14:04:48.558Z,50.95
2022-08-22T14:07:31.911Z,51.00
2022-08-22T14:10:05.028Z,50.97
2022-08-22T14:12:50.313Z,51.16
2022-08-22T14:15:23.640Z,50.95
2022-08-22T14:18:00.108Z,50.13
2022-08-22T14:20:33.702Z,49.74
2022-08-22T14:23:06.453Z,49.45
2022-08-22T14:25:38.153Z,48.96
2022-08-22T14:28:11.068Z,49.02
2022-08-22T14:30:54.636Z,48.65
2022-08-22T14:33:32.656Z,48.77
2022-08-22T14:36:11.270Z,49.17
2022-08-22T14:38:46.535Z,49.66
2022-08-22T14:41:22.418Z,49.94
2022-08-22T14:43:56.458Z,50.15
2022-08-22T14:46:26.400Z,50.23
2022-08-22T14:49:29.482Z,50.30
2022-08-22T14:52:07.469Z,50.39
2022-08-22T14:54:39.267Z,50.20
2022-08-22T14:57:20.070Z,50.10
2022-08-22T14:59:51.612Z,50.17
2022-08-22T15:02:26.465Z,50.34
2022-08-22T15:04:56.854Z,50.45
2022-08-22T15:07:28.304Z,50.37
2022-08-22T15:10:01.075Z,50.50
2022-08-22T15:12:34.136Z,50.71
2022-08-22T15:15:06.587Z,50.84
2022-08-22T15:17:44.343Z,50.86
2022-08-22T15:20:27.808Z,50.92
2022-08-22T15:23:00.930Z,51.14
2022-08-22T15:25:33.573Z,51.24
2022-08-22T15:28:06.391Z,51.11
2022-08-22T15:30:44.405Z,51.25
2022-08-22T15:33:17.329Z,51.33
2022-08-22T15:35:49.587Z,51.33
2022-08-22T15:38:30.157Z,51.45
2022-08-22T15:41:38.570Z,51.66
2022-08-22T15:44:15.121Z,51.79
2022-08-22T15:47:03.251Z,51.96
2022-08-22T15:49:35.561Z,52.03
2022-08-22T15:52:14.661Z,52.19
2022-08-22T15:55:23.049Z,52.37
2022-08-22T15:58:05.127Z,52.33
2022-08-22T16:00:43.490Z,52.46
2022-08-22T16:03:24.243Z,52.59
2022-08-22T16:05:55.880Z,52.57
2022-08-22T16:08:28.031Z,52.74
2022-08-22T16:11:33.017Z,52.80
2022-08-22T16:14:23.238Z,52.90
2022-08-22T16:17:03.543Z,52.86
2022-08-22T16:19:34.755Z,52.92
2022-08-22T16:22:12.074Z,52.89
2022-08-22T16:25:02.577Z,52.94
2022-08-22T16:27:31.268Z,53.07
2022-08-22T16:30:08.656Z,53.09
2022-08-22T16:32:37.252Z,53.14
2022-08-22T16:35:06.570Z,53.24
2022-08-22T16:37:46.728Z,53.20
2022-08-22T16:40:21.279Z,53.34
2022-08-22T16:42:53.204Z,53.52
2022-08-22T16:45:32.377Z,53.40
2022-08-22T16:48:15.840Z,53.48
2022-08-22T16:50:44.787Z,53.66
2022-08-22T16:53:51.723Z,53.72
2022-08-22T16:56:26.732Z,53.94
2022-08-22T16:59:23.027Z,53.95
2022-08-22T17:02:17.976Z,53.85
2022-08-22T17:04:49.152Z,54.01
2022-08-22T17:07:27.410Z,53.98
2022-08-22T17:10:12.429Z,54.04
2022-08-22T17:12:49.234Z,53.90
2022-08-22T17:15:31.604Z,54.10
2022-08-22T17:18:13.810Z,54.13
2022-08-22T17:20:47.162Z,54.07
2022-08-22T17:23:25.116Z,54.37
2022-08-22T17:26:01.349Z,54.33
2022-08-22T17:28:37.610Z,54.26
2022-08-22T17:31:12.890Z,54.48
2022-08-22T17:34:07.936Z,54.47
2022-08-22T17:36:50.620Z,54.57
2022-08-22T17:39:30.081Z,54.79
2022-08-22T17:42:08.656Z,54.86
2022-08-22T17:44:44.700Z,55.05
2022-08-22T17:47:18.069Z,54.87
2022-08-22T17:49:54.390Z,55.10
2022-08-22T17:52:25.186Z,55.05
2022-08-22T17:54:57.989Z,55.25
2022-08-22T17:57:31.087Z,55.37
2022-08-22T18:00:01.221Z,55.58
2022-08-22T18:02:34.046Z,55.53
2022-08-22T18:05:07.592Z,55.94
2022-08-22T18:07:46.605Z,56.18
2022-08-22T18:10:22.223Z,56.41
2022-08-22T18:12:57.874Z,56.64
2022-08-22T18:15:30.126Z,56.57
2022-08-22T18:18:04.037Z,56.94
2022-08-22T18:20:38.196Z,56.98
2022-08-22T18:23:35.471Z,56.95
2022-08-22T18:26:20.117Z,57.26
2022-08-22T18:28:54.797Z,57.32
2022-08-22T18:31:38.450Z,57.50
2022-08-22T18:34:16.049Z,57.67
2022-08-22T18:36:53.130Z,58.12
2022-08-22T18:39:29.216Z,58.23
2022-08-22T18:42:03.510Z,58.31
2022-08-22T18:44:34.421Z,58.40
2022-08-22T18:47:12.762Z,58.40
2022-08-22T18:49:45.531Z,58.57
2022-08-22T18:52:18.434Z,58.84
2022-08-22T18:55:26.626Z,58.74
2022-08-22T18:58:08.641Z,59.05
2022-08-22T19:00:50.588Z,59.28
2022-08-22T19:03:43.413Z,59.24
2022-08-22T19:06:37.881Z,59.46
2022-08-22T19:09:27.528Z,59.49
2022-08-22T19:12:04.888Z,59.52
2022-08-22T19:15:05.341Z,59.68
2022-08-22T19:17:55.833Z,60.07
2022-08-22T19:20:46.190Z,59.99
2022-08-22T19:23:45.056Z,60.07
2022-08-22T19:26:27.259Z,60.20
2022-08-22T19:28:58.195Z,60.45
2022-08-22T19:31:45.034Z,60.46
2022-08-22T19:34:18.149Z,60.58
2022-08-22T19:36:46.833Z,60.84
2022-08-22T19:39:51.073Z,60.98
2022-08-22T19:42:31.789Z,61.09
2022-08-22T19:45:08.338Z,61.21
2022-08-22T19:47:39.082Z,61.21
2022-08-22T19:50:13.245Z,61.66
2022-08-22T19:52:57.089Z,61.71
2022-08-22T19:55:33.054Z,61.69
2022-08-22T19:58:08.913Z,61.83
2022-08-22T20:00:52.847Z,62.15
2022-08-22T20:03:32.046Z,62.20
2022-08-22T20:06:06.992Z,62.34
2022-08-22T20:08:53.733Z,62.62
2022-08-22T20:11:37.131Z,62.57
2022-08-22T20:14:20.083Z,62.61
2022-08-22T20:17:07.375Z,62.84
2022-08-22T20:22:44.296Z,62.99
2022-08-22T20:25:42.757Z,63.34
2022-08-22T20:28:10.972Z,63.45
2022-08-22T20:30:42.911Z,63.65
2022-08-22T20:33:17.110Z,63.86
2022-08-22T20:35:51.934Z,63.97
2022-08-22T20:38:28.595Z,64.04
2022-08-22T20:41:01.983Z,64.33
2022-08-22T20:43:35.499Z,64.37
2022-08-22T20:46:15.151Z,64.53
2022-08-22T20:48:45.375Z,64.69
2022-08-22T20:51:16.401Z,64.80
2022-08-22T20:53:51.174Z,64.84
2022-08-22T20:56:32.100Z,64.97
2022-08-22T20:59:02.951Z,65.20
2022-08-22T21:01:32.147Z,65.33
2022-08-22T21:04:00.920Z,65.32
2022-08-22T21:06:33.761Z,65.55
2022-08-22T21:09:30.928Z,65.69
2022-08-22T21:11:59.759Z,66.06
2022-08-22T21:14:33.964Z,66.24
2022-08-22T21:17:18.284Z,66.24
2022-08-22T21:19:47.144Z,66.38
2022-08-22T21:22:17.835Z,66.45
2022-08-22T21:25:01.065Z,66.53
2022-08-22T21:27:36.230Z,66.60
2022-08-22T21:30:12.421Z,66.86
2022-08-22T21:32:55.062Z,66.92
2022-08-22T21:35:33.226Z,67.12
2022-08-22T21:38:03.622Z,67.32
2022-08-22T21:40:34.524Z,67.60
2022-08-22T21:43:07.405Z,67.64
2022-08-22T21:45:43.249Z,67.77
2022-08-22T21:48:43.533Z,67.89
2022-08-22T21:51:29.719Z,68.03
2022-08-22T21:54:27.804Z,68.06
2022-08-22T21:56:58.381Z,68.41
2022-08-22T21:59:50.714Z,68.54
2022-08-22T22:02:42.376Z,68.61
2022-08-22T22:05:18.045Z,68.76
2022-08-22T22:07:49.739Z,68.72
2022-08-22T22:10:23.287Z,68.90
2022-08-22T22:12:58.730Z,68.98
2022-08-22T22:15:33.505Z,69.21
2022-08-22T22:18:06.077Z,69.63
2022-08-22T22:20:34.661Z,69.82
2022-08-22T22:23:03.630Z,69.66
2022-08-22T22:25:39.801Z,69.71
2022-08-22T22:28:14.034Z,69.75
2022-08-22T22:30:43.743Z,69.83
2022-08-22T22:33:13.148Z,69.87
2022-08-22T22:35:41.988Z,70.05
2022-08-22T22:38:11.084Z,70.20
2022-08-22T22:40:40.866Z,70.38
2022-08-22T22:43:11.303Z,70.54
2022-08-22T22:45:41.593Z,70.89
2022-08-22T22:48:10.132Z,70.72
2022-08-22T22:50:41.488Z,70.81
2022-08-22T22:53:11.449Z,70.89
2022-08-22T22:56:00.077Z,71.03
2022-08-22T22:58:29.955Z,71.22
2022-08-22T23:00:59.154Z,71.27
2022-08-22T23:03:28.474Z,71.28
2022-08-22T23:05:57.703Z,71.42
2022-08-22T23:08:26.501Z,71.60
2022-08-22T23:10:56.034Z,71.69
2022-08-22T23:13:24.812Z,71.65
2022-08-22T23:15:53.596Z,71.74
2022-08-22T23:18:30.476Z,72.08
2022-08-22T23:21:10.669Z,72.29
2022-08-22T23:23:39.258Z,72.32
2022-08-22T23:26:08.209Z,72.51
2022-08-22T23:28:37.198Z,72.56
2022-08-22T23:31:17.278Z,72.67
2022-08-22T23:33:47.114Z,72.72
2022-08-22T23:36:19.975Z,73.21
2022-08-22T23:38:50.751Z,73.53
2022-08-22T23:41:23.691Z,73.84
2022-08-22T23:43:56.247Z,73.89
2022-08-22T23:46:28.002Z,74.14
2022-08-22T23:49:05.987Z,73.94
2022-08-22T23:51:37.705Z,73.99
2022-08-22T23:54:09.956Z,74.08
2022-08-22T23:56:42.374Z,74.22
2022-08-22T23:59:13.911Z,74.24
